Accueil
METAR-TAF:

METAR-TAF

Aéroports :

Aéroport international Norman-Manley de Kingston

Kingston, Jamaïque

latitude: 17-56N, longitude: 076-47W, altitude: 3 m

Observation

Le bulletin a été fait il y a 58 minutes, à 19:00 UTC
Vent 9 kt de sud/sud-est
Température 31°C
Humidité 71%
Pression 1010 hPa
Visibilité 10 km ou plus
Nuages épars à une hauteur de 2200 ft

METAR: MKJP 201900Z 15009KT 9999 SCT022 31/25 Q1010

Heure: 14:58 (19:58 UTC)

Prévision

Le bulletin a été fait il y a 2 heures et 43 minutes, à 17:15 UTC
Prévision valable du 20 à 18 UTC au 21 à 18 UTC
Vent 15 kt de sud/sud-est
Visibilité 10 km ou plus
Quelques nuages à une hauteur de 2200 ft
Evoluant progressivement
du 21 à 01 UTC au 21 à 03 UTC
Vent 5 kt de nord
Evoluant progressivement
du 21 à 14 UTC au 21 à 16 UTC
Vent 10 kt de sud/sud-est

TAF: MKJP 201715Z 2018/2118 16015KT 9999 FEW022 BECMG 2101/2103 35005KT BECMG 2114/2116 15010KT

Observations et prévisions météorologiques de plus de 4000 aéroports (messages METAR et TAF).

Les stations disponibles sont représentées par des disques jaunes et rouges sur la carte.

Passer la souris dessus pour voir le nom de la station.

Cliquer dessus pour voir les observations et prévisions météorologiques.

Pour changer de carte: cliquez sur les boutons verts avec une croix noire pour zoomer, sur le bouton vert avec un tiret pour effectuer un zoom arrière, ou sur les flèches vertes pour les cartes adjacentes.


METAR-TAF: